DLH066 EDDF-EDDC
Flight info
| Callsign | DLH066 |
|---|---|
| Flight time | 0h 40m |
| Altitude | 23000 |
| Route | SULUS4D/07C SULUS L984 KULOK Z715 ABKIS/N0412F220 Q240 DRN DCT |
| Aircraft | A320/M-SDE3FGHIRWY/LB1 |
Departure
| Time | 2026-04-14 16:48 |
|---|---|
| Airport | Frankfurt Main Airport (EDDF) |
Arrival
| Time | 2026-04-14 17:29 |
|---|---|
| Airport | Dresden Airport (EDDC) |
| Time | Latitude | Longitude | Altitude | Speed | Heading |
|---|---|---|---|---|---|
| 2026-04-14 16:10 | 50.04704 | 8.56846 | 356 ft | 0 kts | 294° |
| 2026-04-14 16:38 | 50.04698 | 8.56866 | 363 ft | 4 kts | 293° |
| 2026-04-14 16:38 | 50.04688 | 8.56902 | 360 ft | 4 kts | 295° |
| 2026-04-14 16:39 | 50.04682 | 8.56940 | 362 ft | 4 kts | 245° |
| 2026-04-14 16:39 | 50.04698 | 8.56966 | 365 ft | 2 kts | 204° |
| 2026-04-14 16:39 | 50.04692 | 8.56961 | 364 ft | 4 kts | 204° |
| 2026-04-14 16:39 | 50.04668 | 8.56944 | 364 ft | 4 kts | 204° |
| 2026-04-14 16:40 | 50.04647 | 8.56930 | 361 ft | 1 kts | 204° |
| 2026-04-14 16:42 | 50.04612 | 8.56913 | 356 ft | 11 kts | 193° |
| 2026-04-14 16:42 | 50.04537 | 8.56886 | 359 ft | 10 kts | 193° |
| 2026-04-14 16:43 | 50.04434 | 8.56851 | 366 ft | 17 kts | 188° |
| 2026-04-14 16:43 | 50.04321 | 8.56820 | 360 ft | 15 kts | 191° |
| 2026-04-14 16:43 | 50.04239 | 8.56743 | 358 ft | 15 kts | 248° |
| 2026-04-14 16:43 | 50.04202 | 8.56593 | 357 ft | 15 kts | 250° |
| 2026-04-14 16:44 | 50.04158 | 8.56407 | 361 ft | 24 kts | 250° |
| 2026-04-14 16:44 | 50.04096 | 8.56149 | 357 ft | 27 kts | 249° |
| 2026-04-14 16:44 | 50.04028 | 8.55864 | 354 ft | 29 kts | 249° |
| 2026-04-14 16:45 | 50.03889 | 8.55281 | 356 ft | 28 kts | 249° |
| 2026-04-14 16:45 | 50.03822 | 8.55005 | 356 ft | 28 kts | 250° |
| 2026-04-14 16:45 | 50.03754 | 8.54716 | 349 ft | 28 kts | 250° |
| 2026-04-14 16:45 | 50.03692 | 8.54460 | 349 ft | 20 kts | 249° |
| 2026-04-14 16:46 | 50.03634 | 8.54313 | 344 ft | 12 kts | 202° |
| 2026-04-14 16:46 | 50.03559 | 8.54338 | 344 ft | 11 kts | 159° |
| 2026-04-14 16:46 | 50.03506 | 8.54392 | 343 ft | 11 kts | 123° |
| 2026-04-14 16:46 | 50.03511 | 8.54505 | 349 ft | 6 kts | 69° |
| 2026-04-14 16:47 | 50.03512 | 8.54506 | 348 ft | 0 kts | 69° |
| 2026-04-14 16:47 | 50.03519 | 8.54538 | 344 ft | 17 kts | 69° |
| 2026-04-14 16:47 | 50.03658 | 8.55112 | 348 ft | 93 kts | 70° |
| 2026-04-14 16:48 | 50.03950 | 8.56330 | 359 ft | 149 kts | 69° |
| 2026-04-14 16:48 | 50.04330 | 8.57898 | 894 ft | 154 kts | 68° |
| 2026-04-14 16:48 | 50.04698 | 8.59456 | 1771 ft | 154 kts | 69° |
| 2026-04-14 16:48 | 50.05051 | 8.61023 | 2386 ft | 159 kts | 70° |
| 2026-04-14 16:49 | 50.05419 | 8.62705 | 2912 ft | 169 kts | 70° |
| 2026-04-14 16:49 | 50.05831 | 8.64558 | 3263 ft | 192 kts | 69° |
| 2026-04-14 16:49 | 50.06259 | 8.66496 | 4026 ft | 187 kts | 71° |
| 2026-04-14 16:49 | 50.06668 | 8.68387 | 4783 ft | 183 kts | 72° |
| 2026-04-14 16:50 | 50.07061 | 8.70253 | 5479 ft | 180 kts | 75° |
| 2026-04-14 16:50 | 50.07163 | 8.72231 | 5947 ft | 191 kts | 98° |
| 2026-04-14 16:50 | 50.06921 | 8.74394 | 6204 ft | 214 kts | 101° |
| 2026-04-14 16:50 | 50.06641 | 8.76767 | 6472 ft | 238 kts | 102° |
| 2026-04-14 16:51 | 50.06327 | 8.79433 | 6869 ft | 262 kts | 101° |
| 2026-04-14 16:51 | 50.05992 | 8.82297 | 7533 ft | 274 kts | 102° |
| 2026-04-14 16:51 | 50.05766 | 8.85273 | 8384 ft | 280 kts | 91° |
| 2026-04-14 16:51 | 50.05825 | 8.88291 | 9262 ft | 284 kts | 91° |
| 2026-04-14 16:52 | 50.05885 | 8.91441 | 10161 ft | 288 kts | 91° |
| 2026-04-14 16:52 | 50.05938 | 8.94601 | 10637 ft | 306 kts | 91° |
| 2026-04-14 16:52 | 50.05989 | 8.98044 | 10913 ft | 329 kts | 91° |
| 2026-04-14 16:52 | 50.06043 | 9.01737 | 11152 ft | 352 kts | 91° |
| 2026-04-14 16:53 | 50.06102 | 9.05571 | 11697 ft | 361 kts | 91° |
| 2026-04-14 16:53 | 50.06163 | 9.09527 | 12413 ft | 366 kts | 91° |
| 2026-04-14 16:53 | 50.06222 | 9.13517 | 13143 ft | 371 kts | 90° |
| 2026-04-14 16:53 | 50.06284 | 9.17553 | 13862 ft | 375 kts | 90° |
| 2026-04-14 16:54 | 50.06344 | 9.21597 | 14501 ft | 379 kts | 90° |
| 2026-04-14 16:54 | 50.06406 | 9.25730 | 15122 ft | 384 kts | 90° |
| 2026-04-14 16:54 | 50.06448 | 9.28498 | 15525 ft | 387 kts | 90° |
| 2026-04-14 16:54 | 50.06509 | 9.32719 | 16154 ft | 391 kts | 91° |
| 2026-04-14 16:55 | 50.06582 | 9.38378 | 16974 ft | 396 kts | 91° |
| 2026-04-14 16:55 | 50.06616 | 9.41243 | 17381 ft | 399 kts | 91° |
| 2026-04-14 16:55 | 50.06682 | 9.47036 | 18194 ft | 405 kts | 91° |
| 2026-04-14 16:55 | 50.06734 | 9.51443 | 18760 ft | 410 kts | 91° |
| 2026-04-14 16:56 | 50.06767 | 9.54392 | 19116 ft | 412 kts | 91° |
| 2026-04-14 16:56 | 50.06813 | 9.58894 | 19650 ft | 415 kts | 91° |
| 2026-04-14 16:56 | 50.06856 | 9.63372 | 20171 ft | 419 kts | 92° |
| 2026-04-14 16:56 | 50.06899 | 9.67944 | 20686 ft | 422 kts | 92° |
| 2026-04-14 16:57 | 50.06944 | 9.72538 | 21198 ft | 426 kts | 92° |
| 2026-04-14 16:57 | 50.06990 | 9.77161 | 21688 ft | 429 kts | 92° |
| 2026-04-14 16:57 | 50.07033 | 9.81842 | 22180 ft | 431 kts | 92° |
| 2026-04-14 16:57 | 50.07073 | 9.86467 | 22640 ft | 435 kts | 92° |
| 2026-04-14 16:58 | 50.07112 | 9.91202 | 23069 ft | 438 kts | 92° |
| 2026-04-14 16:58 | 50.07151 | 9.95969 | 23186 ft | 442 kts | 92° |
| 2026-04-14 16:58 | 50.07186 | 10.00841 | 23205 ft | 454 kts | 92° |
| 2026-04-14 16:58 | 50.07220 | 10.05745 | 23201 ft | 460 kts | 92° |
| 2026-04-14 16:59 | 50.07256 | 10.10745 | 23200 ft | 462 kts | 92° |
| 2026-04-14 16:59 | 50.07291 | 10.15749 | 23202 ft | 462 kts | 92° |
| 2026-04-14 16:59 | 50.07319 | 10.20752 | 23207 ft | 462 kts | 92° |
| 2026-04-14 16:59 | 50.07345 | 10.25751 | 23199 ft | 462 kts | 92° |
| 2026-04-14 17:00 | 50.07375 | 10.30711 | 23201 ft | 462 kts | 92° |
| 2026-04-14 17:00 | 50.07401 | 10.35724 | 23206 ft | 462 kts | 92° |
| 2026-04-14 17:00 | 50.07425 | 10.40727 | 23208 ft | 461 kts | 92° |
| 2026-04-14 17:00 | 50.07448 | 10.45722 | 23206 ft | 461 kts | 92° |
| 2026-04-14 17:01 | 50.07470 | 10.50729 | 23206 ft | 461 kts | 92° |
| 2026-04-14 17:01 | 50.07490 | 10.55658 | 23204 ft | 461 kts | 92° |
| 2026-04-14 17:01 | 50.07504 | 10.60664 | 23204 ft | 461 kts | 92° |
| 2026-04-14 17:01 | 50.07510 | 10.65653 | 23203 ft | 461 kts | 92° |
| 2026-04-14 17:02 | 50.07514 | 10.70658 | 23200 ft | 461 kts | 92° |
| 2026-04-14 17:02 | 50.07516 | 10.75647 | 23198 ft | 461 kts | 92° |
| 2026-04-14 17:02 | 50.07518 | 10.80586 | 23199 ft | 460 kts | 92° |
| 2026-04-14 17:02 | 50.07521 | 10.85582 | 23201 ft | 460 kts | 92° |
| 2026-04-14 17:03 | 50.07522 | 10.90587 | 23197 ft | 460 kts | 92° |
| 2026-04-14 17:03 | 50.07523 | 10.95573 | 23197 ft | 460 kts | 92° |
| 2026-04-14 17:03 | 50.07523 | 11.00499 | 23201 ft | 460 kts | 92° |
| 2026-04-14 17:03 | 50.07520 | 11.05495 | 23199 ft | 460 kts | 92° |
| 2026-04-14 17:04 | 50.07513 | 11.10497 | 23199 ft | 459 kts | 92° |
| 2026-04-14 17:04 | 50.07501 | 11.15417 | 23199 ft | 459 kts | 93° |
| 2026-04-14 17:04 | 50.07483 | 11.20387 | 23193 ft | 459 kts | 93° |
| 2026-04-14 17:04 | 50.07463 | 11.25368 | 23202 ft | 459 kts | 93° |
| 2026-04-14 17:05 | 50.07443 | 11.30348 | 23202 ft | 460 kts | 93° |
| 2026-04-14 17:05 | 50.07424 | 11.35337 | 23203 ft | 460 kts | 93° |
| 2026-04-14 17:05 | 50.07404 | 11.40336 | 23207 ft | 459 kts | 93° |
| 2026-04-14 17:05 | 50.07380 | 11.45260 | 23202 ft | 459 kts | 93° |
| 2026-04-14 17:06 | 50.07353 | 11.50253 | 23205 ft | 459 kts | 93° |
| 2026-04-14 17:06 | 50.07487 | 11.55257 | 23195 ft | 462 kts | 85° |
| 2026-04-14 17:06 | 50.08142 | 11.60091 | 23191 ft | 465 kts | 75° |
| 2026-04-14 17:06 | 50.09352 | 11.64781 | 23189 ft | 467 kts | 65° |
| 2026-04-14 17:07 | 50.11083 | 11.69110 | 23188 ft | 470 kts | 54° |
| 2026-04-14 17:07 | 50.13213 | 11.72910 | 23187 ft | 471 kts | 48° |
| 2026-04-14 17:07 | 50.15464 | 11.76654 | 23182 ft | 471 kts | 48° |
| 2026-04-14 17:07 | 50.17703 | 11.80410 | 23184 ft | 471 kts | 50° |
| 2026-04-14 17:08 | 50.19662 | 11.84417 | 23180 ft | 469 kts | 59° |
| 2026-04-14 17:08 | 50.21375 | 11.88752 | 23184 ft | 468 kts | 60° |
| 2026-04-14 17:08 | 50.23084 | 11.93107 | 23180 ft | 469 kts | 60° |
| 2026-04-14 17:08 | 50.24791 | 11.97453 | 23182 ft | 469 kts | 60° |
| 2026-04-14 17:09 | 50.26481 | 12.01750 | 23182 ft | 469 kts | 60° |
| 2026-04-14 17:09 | 50.28244 | 12.06050 | 23181 ft | 469 kts | 58° |
| 2026-04-14 17:09 | 50.28856 | 12.07483 | 23183 ft | 469 kts | 57° |
| 2026-04-14 17:09 | 50.28908 | 12.07604 | 23183 ft | 469 kts | 57° |
| 2026-04-14 17:10 | 50.30389 | 12.10958 | 23180 ft | 469 kts | 56° |
| 2026-04-14 17:10 | 50.32279 | 12.15153 | 23181 ft | 469 kts | 56° |
| 2026-04-14 17:10 | 50.34158 | 12.19347 | 23182 ft | 469 kts | 58° |
| 2026-04-14 17:10 | 50.35782 | 12.23771 | 23187 ft | 468 kts | 63° |
| 2026-04-14 17:11 | 50.37299 | 12.28212 | 23189 ft | 468 kts | 63° |
| 2026-04-14 17:11 | 50.38827 | 12.32743 | 23190 ft | 468 kts | 64° |
| 2026-04-14 17:11 | 50.40341 | 12.37266 | 23190 ft | 468 kts | 64° |
| 2026-04-14 17:11 | 50.41850 | 12.41801 | 23186 ft | 468 kts | 64° |
| 2026-04-14 17:12 | 50.43336 | 12.46281 | 23189 ft | 468 kts | 64° |
| 2026-04-14 17:12 | 50.44843 | 12.50821 | 23194 ft | 468 kts | 64° |
| 2026-04-14 17:12 | 50.46354 | 12.55361 | 23198 ft | 468 kts | 64° |
| 2026-04-14 17:12 | 50.47869 | 12.59904 | 23185 ft | 468 kts | 64° |
| 2026-04-14 17:13 | 50.49384 | 12.64449 | 23188 ft | 468 kts | 64° |
| 2026-04-14 17:13 | 50.50874 | 12.68933 | 23195 ft | 469 kts | 64° |
| 2026-04-14 17:13 | 50.52384 | 12.73493 | 23199 ft | 469 kts | 64° |
| 2026-04-14 17:13 | 50.53889 | 12.78055 | 23203 ft | 468 kts | 64° |
| 2026-04-14 17:14 | 50.55390 | 12.82617 | 23187 ft | 469 kts | 64° |
| 2026-04-14 17:14 | 50.56875 | 12.87131 | 23192 ft | 469 kts | 64° |
| 2026-04-14 17:14 | 50.58358 | 12.91643 | 22830 ft | 458 kts | 64° |
| 2026-04-14 17:14 | 50.59834 | 12.96142 | 21424 ft | 465 kts | 64° |
| 2026-04-14 17:15 | 50.61323 | 13.00681 | 20434 ft | 465 kts | 63° |
| 2026-04-14 17:15 | 50.63014 | 13.04924 | 19607 ft | 461 kts | 54° |
| 2026-04-14 17:15 | 50.65124 | 13.08696 | 18757 ft | 458 kts | 44° |
| 2026-04-14 17:15 | 50.67489 | 13.12025 | 17893 ft | 453 kts | 42° |
| 2026-04-14 17:16 | 50.69846 | 13.15296 | 17119 ft | 447 kts | 42° |
| 2026-04-14 17:16 | 50.72166 | 13.18519 | 16335 ft | 442 kts | 42° |
| 2026-04-14 17:16 | 50.74443 | 13.21688 | 15608 ft | 436 kts | 42° |
| 2026-04-14 17:16 | 50.76707 | 13.24851 | 14897 ft | 432 kts | 42° |
| 2026-04-14 17:17 | 50.78946 | 13.27988 | 14201 ft | 427 kts | 43° |
| 2026-04-14 17:17 | 50.81139 | 13.31067 | 13484 ft | 423 kts | 42° |
| 2026-04-14 17:17 | 50.83330 | 13.34145 | 12826 ft | 417 kts | 42° |
| 2026-04-14 17:17 | 50.85480 | 13.37167 | 12171 ft | 411 kts | 42° |
| 2026-04-14 17:18 | 50.87612 | 13.40166 | 11516 ft | 405 kts | 42° |
| 2026-04-14 17:18 | 50.89684 | 13.43087 | 11282 ft | 389 kts | 42° |
| 2026-04-14 17:18 | 50.91631 | 13.45835 | 11162 ft | 370 kts | 42° |
| 2026-04-14 17:18 | 50.93519 | 13.48503 | 11020 ft | 354 kts | 42° |
| 2026-04-14 17:19 | 50.95320 | 13.51049 | 10907 ft | 339 kts | 42° |
| 2026-04-14 17:19 | 50.97045 | 13.53490 | 10795 ft | 325 kts | 42° |
| 2026-04-14 17:19 | 50.98709 | 13.55845 | 10667 ft | 313 kts | 42° |
| 2026-04-14 17:19 | 51.00342 | 13.57996 | 10483 ft | 305 kts | 34° |
| 2026-04-14 17:20 | 51.02207 | 13.59544 | 10362 ft | 301 kts | 20° |
| 2026-04-14 17:20 | 51.04210 | 13.60380 | 10253 ft | 300 kts | 7° |
| 2026-04-14 17:20 | 51.06290 | 13.60766 | 9857 ft | 304 kts | 6° |
| 2026-04-14 17:20 | 51.08393 | 13.61147 | 9457 ft | 301 kts | 6° |
| 2026-04-14 17:21 | 51.10472 | 13.61528 | 9059 ft | 299 kts | 7° |
| 2026-04-14 17:21 | 51.12449 | 13.62397 | 8658 ft | 297 kts | 24° |
| 2026-04-14 17:21 | 51.14204 | 13.64097 | 8095 ft | 292 kts | 41° |
| 2026-04-14 17:21 | 51.15609 | 13.66411 | 7394 ft | 289 kts | 50° |
| 2026-04-14 17:22 | 51.16923 | 13.68797 | 6707 ft | 288 kts | 50° |
| 2026-04-14 17:22 | 51.18246 | 13.71188 | 6011 ft | 284 kts | 50° |
| 2026-04-14 17:22 | 51.19546 | 13.73528 | 5385 ft | 278 kts | 51° |
| 2026-04-14 17:22 | 51.20819 | 13.75820 | 4713 ft | 273 kts | 52° |
| 2026-04-14 17:23 | 51.22066 | 13.78073 | 4068 ft | 268 kts | 52° |
| 2026-04-14 17:23 | 51.23241 | 13.80188 | 3917 ft | 244 kts | 53° |
| 2026-04-14 17:23 | 51.24311 | 13.82112 | 3854 ft | 222 kts | 53° |
| 2026-04-14 17:23 | 51.25291 | 13.83884 | 3777 ft | 205 kts | 53° |
| 2026-04-14 17:24 | 51.26034 | 13.85685 | 3717 ft | 181 kts | 75° |
| 2026-04-14 17:24 | 51.26225 | 13.87555 | 3617 ft | 163 kts | 97° |
| 2026-04-14 17:24 | 51.25978 | 13.89231 | 3508 ft | 149 kts | 119° |
| 2026-04-14 17:24 | 51.25326 | 13.90399 | 3427 ft | 142 kts | 148° |
| 2026-04-14 17:25 | 51.24343 | 13.90887 | 3372 ft | 154 kts | 176° |
| 2026-04-14 17:25 | 51.23292 | 13.90404 | 3246 ft | 163 kts | 211° |
| 2026-04-14 17:25 | 51.22415 | 13.89210 | 3068 ft | 166 kts | 217° |
| 2026-04-14 17:25 | 51.21564 | 13.88028 | 2856 ft | 161 kts | 216° |
| 2026-04-14 17:26 | 51.20747 | 13.86896 | 2668 ft | 150 kts | 216° |
| 2026-04-14 17:26 | 51.19968 | 13.85818 | 2453 ft | 146 kts | 216° |
| 2026-04-14 17:26 | 51.19202 | 13.84761 | 2257 ft | 145 kts | 217° |
| 2026-04-14 17:26 | 51.18440 | 13.83708 | 2056 ft | 145 kts | 217° |
| 2026-04-14 17:27 | 51.17685 | 13.82666 | 1831 ft | 145 kts | 217° |
| 2026-04-14 17:27 | 51.16919 | 13.81608 | 1562 ft | 143 kts | 219° |
| 2026-04-14 17:27 | 51.16179 | 13.80586 | 1315 ft | 140 kts | 222° |
| 2026-04-14 17:27 | 51.15451 | 13.79572 | 1080 ft | 138 kts | 225° |
| 2026-04-14 17:28 | 51.14728 | 13.78575 | 891 ft | 136 kts | 224° |
| 2026-04-14 17:28 | 51.14012 | 13.77596 | 721 ft | 132 kts | 224° |
| 2026-04-14 17:28 | 51.13418 | 13.76775 | 712 ft | 91 kts | 220° |
| 2026-04-14 17:28 | 51.13052 | 13.76274 | 713 ft | 53 kts | 221° |
| 2026-04-14 17:29 | 51.12826 | 13.75960 | 712 ft | 37 kts | 220° |
| 2026-04-14 17:29 | 51.12705 | 13.75843 | 711 ft | 12 kts | 169° |
| 2026-04-14 17:29 | 51.12645 | 13.75934 | 714 ft | 12 kts | 131° |
| 2026-04-14 17:29 | 51.12593 | 13.76029 | 713 ft | 11 kts | 130° |
| 2026-04-14 17:30 | 51.12594 | 13.76123 | 715 ft | 8 kts | 38° |
| 2026-04-14 17:30 | 51.12635 | 13.76178 | 715 ft | 7 kts | 41° |
| 2026-04-14 17:30 | 51.12671 | 13.76227 | 714 ft | 6 kts | 41° |
| 2026-04-14 17:30 | 51.12721 | 13.76296 | 713 ft | 11 kts | 41° |
| 2026-04-14 17:31 | 51.12774 | 13.76371 | 712 ft | 11 kts | 41° |
| 2026-04-14 17:31 | 51.12810 | 13.76474 | 713 ft | 9 kts | 116° |
| 2026-04-14 17:31 | 51.12771 | 13.76548 | 715 ft | 8 kts | 131° |
| 2026-04-14 17:31 | 51.12730 | 13.76623 | 715 ft | 10 kts | 131° |
| 2026-04-14 17:32 | 51.12678 | 13.76612 | 714 ft | 8 kts | 220° |
| 2026-04-14 17:32 | 51.12638 | 13.76558 | 715 ft | 7 kts | 221° |
| 2026-04-14 17:32 | 51.12629 | 13.76544 | 714 ft | 0 kts | 221° |